sensor_id;sensor_type;location;lat;lon;timestamp;pressure;altitude;pressure_sealevel;temperature;humidity
78671;BME280;68277;52.724;6.516;2023-06-22T00:00:48;101979.44;;;18.55;70.53
78671;BME280;68277;52.724;6.516;2023-06-22T00:03:13;101946.44;;;18.28;70.82
78671;BME280;68277;52.724;6.516;2023-06-22T00:05:39;102011.53;;;18.58;71.01
78671;BME280;68277;52.724;6.516;2023-06-22T00:08:04;102016.88;;;18.58;71.79
78671;BME280;68277;52.724;6.516;2023-06-22T00:10:30;101996.75;;;18.45;69.90
78671;BME280;68277;52.724;6.516;2023-06-22T00:12:56;101993.19;;;18.46;70.87
78671;BME280;68277;52.724;6.516;2023-06-22T00:15:22;102002.94;;;18.49;70.48
78671;BME280;68277;52.724;6.516;2023-06-22T00:17:49;101982.00;;;18.33;70.97
78671;BME280;68277;52.724;6.516;2023-06-22T00:20:15;101970.63;;;18.27;71.04
78671;BME280;68277;52.724;6.516;2023-06-22T00:22:46;101991.75;;;18.36;70.06
78671;BME280;68277;52.724;6.516;2023-06-22T00:25:13;101965.47;;;18.21;71.79
78671;BME280;68277;52.724;6.516;2023-06-22T00:27:38;101970.81;;;18.22;71.39
78671;BME280;68277;52.724;6.516;2023-06-22T00:30:06;101972.38;;;18.28;72.08
78671;BME280;68277;52.724;6.516;2023-06-22T00:32:31;101969.66;;;18.29;71.03
78671;BME280;68277;52.724;6.516;2023-06-22T00:34:57;101969.59;;;18.31;70.68
78671;BME280;68277;52.724;6.516;2023-06-22T00:37:22;101996.69;;;18.48;70.05
78671;BME280;68277;52.724;6.516;2023-06-22T00:39:52;101989.56;;;18.47;71.46
78671;BME280;68277;52.724;6.516;2023-06-22T00:42:18;101988.69;;;18.47;71.20
78671;BME280;68277;52.724;6.516;2023-06-22T00:44:45;101957.88;;;18.33;70.92
78671;BME280;68277;52.724;6.516;2023-06-22T00:47:12;101991.41;;;18.45;70.23
78671;BME280;68277;52.724;6.516;2023-06-22T00:49:39;101959.91;;;18.27;70.79
78671;BME280;68277;52.724;6.516;2023-06-22T00:52:06;101998.63;;;18.43;71.58
78671;BME280;68277;52.724;6.516;2023-06-22T00:54:40;101943.47;;;18.13;71.68
78671;BME280;68277;52.724;6.516;2023-06-22T00:57:13;101959.38;;;18.17;72.06
78671;BME280;68277;52.724;6.516;2023-06-22T00:59:42;101967.25;;;18.22;71.48
78671;BME280;68277;52.724;6.516;2023-06-22T01:02:09;101969.81;;;18.25;71.96
78671;BME280;68277;52.724;6.516;2023-06-22T01:04:39;101985.56;;;18.34;71.61
78671;BME280;68277;52.724;6.516;2023-06-22T01:07:41;101956.69;;;18.17;72.49
78671;BME280;68277;52.724;6.516;2023-06-22T01:13:13;101963.03;;;18.15;73.51
78671;BME280;68277;52.724;6.516;2023-06-22T01:15:51;101964.94;;;18.11;77.27
78671;BME280;68277;52.724;6.516;2023-06-22T01:18:19;101952.97;;;17.97;73.76
78671;BME280;68277;52.724;6.516;2023-06-22T01:20:53;101911.16;;;17.68;73.82
78671;BME280;68277;52.724;6.516;2023-06-22T01:23:51;101973.56;;;17.95;74.31
78671;BME280;68277;52.724;6.516;2023-06-22T01:26:33;101971.09;;;17.89;74.22
78671;BME280;68277;52.724;6.516;2023-06-22T01:29:04;101943.88;;;17.76;73.13
78671;BME280;68277;52.724;6.516;2023-06-22T01:31:33;101953.81;;;17.72;73.41
78671;BME280;68277;52.724;6.516;2023-06-22T01:34:03;101888.22;;;17.33;74.27
78671;BME280;68277;52.724;6.516;2023-06-22T01:36:31;101926.59;;;17.60;73.74
78671;BME280;68277;52.724;6.516;2023-06-22T01:38:58;101968.59;;;17.84;74.18
78671;BME280;68277;52.724;6.516;2023-06-22T01:41:25;101940.53;;;17.69;74.40
78671;BME280;68277;52.724;6.516;2023-06-22T01:43:53;101956.13;;;17.83;74.22
78671;BME280;68277;52.724;6.516;2023-06-22T01:46:20;101950.34;;;17.69;74.39
78671;BME280;68277;52.724;6.516;2023-06-22T01:48:47;101943.53;;;17.60;73.63
78671;BME280;68277;52.724;6.516;2023-06-22T01:51:13;101964.59;;;17.71;73.63
78671;BME280;68277;52.724;6.516;2023-06-22T01:53:39;101948.06;;;17.58;74.23
78671;BME280;68277;52.724;6.516;2023-06-22T01:56:05;101955.03;;;17.64;75.17
78671;BME280;68277;52.724;6.516;2023-06-22T01:58:33;101922.34;;;17.54;74.84
78671;BME280;68277;52.724;6.516;2023-06-22T02:03:38;101960.38;;;17.64;74.61
78671;BME280;68277;52.724;6.516;2023-06-22T02:06:10;101938.50;;;17.50;76.10
78671;BME280;68277;52.724;6.516;2023-06-22T02:08:40;101963.16;;;17.61;74.58
78671;BME280;68277;52.724;6.516;2023-06-22T02:11:09;101937.63;;;17.49;73.71
78671;BME280;68277;52.724;6.516;2023-06-22T02:13:36;101965.00;;;17.59;75.33
78671;BME280;68277;52.724;6.516;2023-06-22T02:16:03;101948.38;;;17.48;74.76
78671;BME280;68277;52.724;6.516;2023-06-22T02:18:29;101978.25;;;17.62;76.80
78671;BME280;68277;52.724;6.516;2023-06-22T02:20:57;101955.50;;;17.49;75.40
78671;BME280;68277;52.724;6.516;2023-06-22T02:23:23;101966.91;;;17.55;77.38
78671;BME280;68277;52.724;6.516;2023-06-22T02:25:48;101945.00;;;17.43;75.72
78671;BME280;68277;52.724;6.516;2023-06-22T02:28:14;101966.00;;;17.55;80.97
78671;BME280;68277;52.724;6.516;2023-06-22T02:30:40;101942.44;;;17.38;74.44
78671;BME280;68277;52.724;6.516;2023-06-22T02:33:06;101950.53;;;17.37;75.37
78671;BME280;68277;52.724;6.516;2023-06-22T02:35:32;101942.75;;;17.29;75.99
78671;BME280;68277;52.724;6.516;2023-06-22T02:38:01;101966.34;;;17.44;74.84
78671;BME280;68277;52.724;6.516;2023-06-22T02:40:28;101967.16;;;17.46;76.91
78671;BME280;68277;52.724;6.516;2023-06-22T02:42:55;101882.47;;;16.91;76.33
78671;BME280;68277;52.724;6.516;2023-06-22T02:45:23;101959.50;;;17.36;74.80
78671;BME280;68277;52.724;6.516;2023-06-22T02:47:50;101927.31;;;17.11;76.25
78671;BME280;68277;52.724;6.516;2023-06-22T02:50:16;101948.50;;;17.17;77.07
78671;BME280;68277;52.724;6.516;2023-06-22T02:52:42;101945.16;;;17.10;76.56
78671;BME280;68277;52.724;6.516;2023-06-22T02:55:08;101945.94;;;17.14;74.97
78671;BME280;68277;52.724;6.516;2023-06-22T02:57:34;101969.56;;;17.28;75.91
78671;BME280;68277;52.724;6.516;2023-06-22T02:59:59;101967.81;;;17.27;75.94
78671;BME280;68277;52.724;6.516;2023-06-22T03:02:25;101957.47;;;17.16;76.84
78671;BME280;68277;52.724;6.516;2023-06-22T03:04:52;101944.19;;;17.13;77.70
78671;BME280;68277;52.724;6.516;2023-06-22T03:07:20;101951.38;;;17.11;78.07
78671;BME280;68277;52.724;6.516;2023-06-22T03:09:48;101945.50;;;17.00;77.97
78671;BME280;68277;52.724;6.516;2023-06-22T03:12:14;101949.16;;;16.97;77.33
78671;BME280;68277;52.724;6.516;2023-06-22T03:14:49;101944.75;;;16.95;77.05
78671;BME280;68277;52.724;6.516;2023-06-22T03:17:15;101934.25;;;16.89;79.42
78671;BME280;68277;52.724;6.516;2023-06-22T03:19:40;101955.47;;;16.95;77.54
78671;BME280;68277;52.724;6.516;2023-06-22T03:22:06;101948.34;;;16.94;77.05
78671;BME280;68277;52.724;6.516;2023-06-22T03:24:32;101942.16;;;16.92;76.16
78671;BME280;68277;52.724;6.516;2023-06-22T03:27:00;101966.78;;;17.03;78.08
78671;BME280;68277;52.724;6.516;2023-06-22T03:29:25;101934.44;;;16.83;77.43
78671;BME280;68277;52.724;6.516;2023-06-22T03:31:51;101942.38;;;16.86;77.70
78671;BME280;68277;52.724;6.516;2023-06-22T03:34:17;101939.72;;;16.84;78.04
78671;BME280;68277;52.724;6.516;2023-06-22T03:36:42;101954.34;;;17.02;78.12
78671;BME280;68277;52.724;6.516;2023-06-22T03:39:12;101922.03;;;16.80;78.33
78671;BME280;68277;52.724;6.516;2023-06-22T03:41:40;101942.00;;;16.98;78.26
78671;BME280;68277;52.724;6.516;2023-06-22T03:44:05;101947.28;;;16.99;77.99
78671;BME280;68277;52.724;6.516;2023-06-22T03:46:31;101959.78;;;16.99;77.77
78671;BME280;68277;52.724;6.516;2023-06-22T03:48:56;101931.56;;;16.89;78.47
78671;BME280;68277;52.724;6.516;2023-06-22T03:51:22;101944.47;;;17.04;77.00
78671;BME280;68277;52.724;6.516;2023-06-22T03:53:48;101929.59;;;16.95;77.64
78671;BME280;68277;52.724;6.516;2023-06-22T03:56:13;101945.38;;;17.03;76.35
78671;BME280;68277;52.724;6.516;2023-06-22T03:58:45;101951.31;;;17.13;78.16
78671;BME280;68277;52.724;6.516;2023-06-22T04:01:11;101932.88;;;17.03;78.33
78671;BME280;68277;52.724;6.516;2023-06-22T04:03:40;101951.38;;;17.11;77.61
78671;BME280;68277;52.724;6.516;2023-06-22T04:06:07;101941.59;;;17.10;77.81
78671;BME280;68277;52.724;6.516;2023-06-22T04:08:32;101936.31;;;17.08;77.28
78671;BME280;68277;52.724;6.516;2023-06-22T04:10:57;101947.50;;;17.21;76.69
78671;BME280;68277;52.724;6.516;2023-06-22T04:13:23;101915.63;;;17.14;77.83
78671;BME280;68277;52.724;6.516;2023-06-22T04:15:48;101942.88;;;17.26;76.98
78671;BME280;68277;52.724;6.516;2023-06-22T04:18:14;101908.56;;;17.11;78.53
78671;BME280;68277;52.724;6.516;2023-06-22T04:20:40;101946.38;;;17.28;77.49
78671;BME280;68277;52.724;6.516;2023-06-22T04:23:12;101944.44;;;17.32;77.78
78671;BME280;68277;52.724;6.516;2023-06-22T04:25:37;101932.78;;;17.34;77.29
78671;BME280;68277;52.724;6.516;2023-06-22T04:28:05;101960.66;;;17.55;80.16
78671;BME280;68277;52.724;6.516;2023-06-22T04:30:32;101965.81;;;17.61;76.69
78671;BME280;68277;52.724;6.516;2023-06-22T04:32:58;101960.63;;;17.56;76.65
78671;BME280;68277;52.724;6.516;2023-06-22T04:35:24;101934.22;;;17.44;76.64
78671;BME280;68277;52.724;6.516;2023-06-22T04:37:50;101953.75;;;17.74;76.23
78671;BME280;68277;52.724;6.516;2023-06-22T04:40:21;101969.63;;;18.05;76.01
78671;BME280;68277;52.724;6.516;2023-06-22T04:42:47;101966.63;;;18.63;74.70
78671;BME280;68277;52.724;6.516;2023-06-22T04:45:19;101963.78;;;19.36;72.95
78671;BME280;68277;52.724;6.516;2023-06-22T04:47:44;101935.94;;;19.38;72.58
78671;BME280;68277;52.724;6.516;2023-06-22T04:50:14;101939.84;;;19.51;71.65
78671;BME280;68277;52.724;6.516;2023-06-22T04:52:43;101961.31;;;19.51;72.95
78671;BME280;68277;52.724;6.516;2023-06-22T04:55:11;101963.59;;;19.40;73.04
78671;BME280;68277;52.724;6.516;2023-06-22T04:57:36;101938.31;;;19.23;74.14
78671;BME280;68277;52.724;6.516;2023-06-22T05:00:05;101955.88;;;19.31;74.50
78671;BME280;68277;52.724;6.516;2023-06-22T05:02:43;101930.50;;;19.40;74.92
78671;BME280;68277;52.724;6.516;2023-06-22T05:05:10;101924.97;;;19.85;73.47
78671;BME280;68277;52.724;6.516;2023-06-22T05:07:39;101912.22;;;20.30;72.54
78671;BME280;68277;52.724;6.516;2023-06-22T05:10:09;101919.34;;;20.50;71.22
78671;BME280;68277;52.724;6.516;2023-06-22T05:12:35;101915.94;;;20.46;71.64
78671;BME280;68277;52.724;6.516;2023-06-22T05:15:01;101912.47;;;20.24;71.79
78671;BME280;68277;52.724;6.516;2023-06-22T05:17:27;101937.28;;;20.10;73.04
78671;BME280;68277;52.724;6.516;2023-06-22T05:19:52;101904.16;;;19.90;73.77
78671;BME280;68277;52.724;6.516;2023-06-22T05:22:18;101913.41;;;20.03;73.26
78671;BME280;68277;52.724;6.516;2023-06-22T05:24:44;101940.94;;;20.48;72.32
78671;BME280;68277;52.724;6.516;2023-06-22T05:27:10;101925.50;;;20.72;71.19
78671;BME280;68277;52.724;6.516;2023-06-22T05:29:36;101909.22;;;20.75;70.57
78671;BME280;68277;52.724;6.516;2023-06-22T05:32:02;101941.78;;;20.87;70.78
78671;BME280;68277;52.724;6.516;2023-06-22T05:34:27;101932.00;;;21.03;70.26
78671;BME280;68277;52.724;6.516;2023-06-22T05:36:53;101908.22;;;20.94;70.15
78671;BME280;68277;52.724;6.516;2023-06-22T05:39:18;101936.69;;;21.00;70.23
78671;BME280;68277;52.724;6.516;2023-06-22T05:41:45;101937.25;;;21.25;70.09
78671;BME280;68277;52.724;6.516;2023-06-22T05:44:11;101933.91;;;21.20;70.18
78671;BME280;68277;52.724;6.516;2023-06-22T05:46:37;101943.44;;;20.90;71.33
78671;BME280;68277;52.724;6.516;2023-06-22T05:49:02;101898.63;;;20.52;71.79
78671;BME280;68277;52.724;6.516;2023-06-22T05:51:28;101936.09;;;21.31;69.95
78671;BME280;68277;52.724;6.516;2023-06-22T05:53:53;101910.47;;;21.41;68.42
78671;BME280;68277;52.724;6.516;2023-06-22T05:56:19;101933.25;;;21.34;68.97
78671;BME280;68277;52.724;6.516;2023-06-22T05:58:45;101938.56;;;21.35;69.08
78671;BME280;68277;52.724;6.516;2023-06-22T06:01:11;101906.59;;;21.63;67.18
78671;BME280;68277;52.724;6.516;2023-06-22T06:03:37;101890.41;;;21.98;65.45
78671;BME280;68277;52.724;6.516;2023-06-22T06:06:07;101923.34;;;21.87;66.07
78671;BME280;68277;52.724;6.516;2023-06-22T06:08:32;101911.91;;;21.48;67.28
78671;BME280;68277;52.724;6.516;2023-06-22T06:10:58;101920.88;;;21.30;67.87
78671;BME280;68277;52.724;6.516;2023-06-22T06:13:24;101944.16;;;21.31;68.70
78671;BME280;68277;52.724;6.516;2023-06-22T06:15:49;101948.88;;;21.44;68.50
78671;BME280;68277;52.724;6.516;2023-06-22T06:18:20;101944.03;;;21.51;68.00
78671;BME280;68277;52.724;6.516;2023-06-22T06:20:46;101958.66;;;21.64;68.06
78671;BME280;68277;52.724;6.516;2023-06-22T06:23:12;101917.56;;;21.42;68.52
78671;BME280;68277;52.724;6.516;2023-06-22T06:25:37;101936.06;;;21.66;68.60
78671;BME280;68277;52.724;6.516;2023-06-22T06:28:04;101914.81;;;21.77;67.53
78671;BME280;68277;52.724;6.516;2023-06-22T06:30:30;101921.81;;;21.99;66.84
78671;BME280;68277;52.724;6.516;2023-06-22T06:32:56;101931.59;;;22.34;66.27
78671;BME280;68277;52.724;6.516;2023-06-22T06:35:22;101923.88;;;22.11;66.47
78671;BME280;68277;52.724;6.516;2023-06-22T06:37:48;101949.81;;;22.13;66.94
78671;BME280;68277;52.724;6.516;2023-06-22T06:40:15;101948.59;;;22.19;66.41
78671;BME280;68277;52.724;6.516;2023-06-22T06:42:46;101942.91;;;22.25;65.83
78671;BME280;68277;52.724;6.516;2023-06-22T06:45:15;101937.00;;;22.34;65.81
78671;BME280;68277;52.724;6.516;2023-06-22T06:47:41;101935.06;;;22.53;65.70
78671;BME280;68277;52.724;6.516;2023-06-22T06:50:07;101948.63;;;23.00;64.49
78671;BME280;68277;52.724;6.516;2023-06-22T06:52:33;101909.59;;;22.90;64.34
78671;BME280;68277;52.724;6.516;2023-06-22T06:54:59;101946.56;;;23.05;64.23
78671;BME280;68277;52.724;6.516;2023-06-22T06:57:29;101957.53;;;23.02;64.87
78671;BME280;68277;52.724;6.516;2023-06-22T06:59:56;101950.72;;;22.95;64.19
78671;BME280;68277;52.724;6.516;2023-06-22T07:02:22;101958.09;;;22.76;64.84
78671;BME280;68277;52.724;6.516;2023-06-22T07:04:48;101910.03;;;22.34;65.25
78671;BME280;68277;52.724;6.516;2023-06-22T07:07:14;101909.00;;;22.52;65.03
78671;BME280;68277;52.724;6.516;2023-06-22T07:09:40;101952.91;;;23.04;64.73
78671;BME280;68277;52.724;6.516;2023-06-22T07:12:07;101934.00;;;22.73;64.47
78671;BME280;68277;52.724;6.516;2023-06-22T07:14:33;101945.69;;;22.89;64.34
78671;BME280;68277;52.724;6.516;2023-06-22T07:17:00;101930.78;;;22.82;64.45
78671;BME280;68277;52.724;6.516;2023-06-22T07:19:27;101930.00;;;22.80;63.87
78671;BME280;68277;52.724;6.516;2023-06-22T07:21:53;101907.44;;;22.81;63.83
78671;BME280;68277;52.724;6.516;2023-06-22T07:24:22;101932.25;;;23.19;63.10
78671;BME280;68277;52.724;6.516;2023-06-22T07:26:49;101894.47;;;22.72;63.69
78671;BME280;68277;52.724;6.516;2023-06-22T07:29:19;101936.00;;;22.85;64.18
78671;BME280;68277;52.724;6.516;2023-06-22T07:31:49;101927.72;;;23.19;63.55
78671;BME280;68277;52.724;6.516;2023-06-22T07:34:17;101916.22;;;23.31;62.83
78671;BME280;68277;52.724;6.516;2023-06-22T07:36:43;101919.13;;;23.12;63.61
78671;BME280;68277;52.724;6.516;2023-06-22T07:39:08;101899.25;;;23.13;64.24
78671;BME280;68277;52.724;6.516;2023-06-22T07:41:34;101912.91;;;23.57;63.68
78671;BME280;68277;52.724;6.516;2023-06-22T07:44:00;101873.78;;;23.33;62.94
78671;BME280;68277;52.724;6.516;2023-06-22T07:46:25;101889.22;;;23.31;63.28
78671;BME280;68277;52.724;6.516;2023-06-22T07:48:51;101887.59;;;23.58;62.29
78671;BME280;68277;52.724;6.516;2023-06-22T07:51:17;101896.50;;;23.74;61.66
78671;BME280;68277;52.724;6.516;2023-06-22T07:53:43;101895.56;;;23.75;61.10
78671;BME280;68277;52.724;6.516;2023-06-22T07:56:12;101907.53;;;24.15;58.79
78671;BME280;68277;52.724;6.516;2023-06-22T07:58:37;101876.53;;;24.35;59.05
78671;BME280;68277;52.724;6.516;2023-06-22T08:01:03;101880.34;;;24.87;57.85
78671;BME280;68277;52.724;6.516;2023-06-22T08:03:29;101879.13;;;25.32;56.47
78671;BME280;68277;52.724;6.516;2023-06-22T08:05:55;101904.81;;;25.53;56.56
78671;BME280;68277;52.724;6.516;2023-06-22T08:08:21;101870.69;;;25.24;56.88
78671;BME280;68277;52.724;6.516;2023-06-22T08:10:46;101878.19;;;25.33;57.78
78671;BME280;68277;52.724;6.516;2023-06-22T08:13:12;101882.38;;;25.25;57.91
78671;BME280;68277;52.724;6.516;2023-06-22T08:15:37;101857.50;;;25.71;56.22
78671;BME280;68277;52.724;6.516;2023-06-22T08:18:03;101869.41;;;26.70;53.53
78671;BME280;68277;52.724;6.516;2023-06-22T08:20:28;101864.94;;;26.81;53.15
78671;BME280;68277;52.724;6.516;2023-06-22T08:22:55;101887.19;;;27.23;51.55
78671;BME280;68277;52.724;6.516;2023-06-22T08:25:21;101867.97;;;26.64;53.53
78671;BME280;68277;52.724;6.516;2023-06-22T08:27:47;101884.72;;;25.83;56.16
78671;BME280;68277;52.724;6.516;2023-06-22T08:30:14;101879.13;;;25.32;57.99
78671;BME280;68277;52.724;6.516;2023-06-22T08:32:40;101876.91;;;25.12;58.75
78671;BME280;68277;52.724;6.516;2023-06-22T08:35:06;101852.88;;;24.93;57.70
78671;BME280;68277;52.724;6.516;2023-06-22T08:37:33;101842.41;;;25.01;59.03
78671;BME280;68277;52.724;6.516;2023-06-22T08:40:03;101852.59;;;25.25;58.56
78671;BME280;68277;52.724;6.516;2023-06-22T08:42:30;101878.38;;;25.30;59.21
78671;BME280;68277;52.724;6.516;2023-06-22T08:44:56;101863.91;;;25.83;58.36
78671;BME280;68277;52.724;6.516;2023-06-22T08:47:22;101886.78;;;26.80;55.14
78671;BME280;68277;52.724;6.516;2023-06-22T08:49:48;101876.53;;;27.20;52.95
78671;BME280;68277;52.724;6.516;2023-06-22T08:52:14;101860.75;;;27.01;53.20
78671;BME280;68277;52.724;6.516;2023-06-22T08:54:40;101867.22;;;26.62;54.54
78671;BME280;68277;52.724;6.516;2023-06-22T08:57:05;101831.66;;;26.41;54.66
78671;BME280;68277;52.724;6.516;2023-06-22T08:59:31;101853.59;;;26.51;55.13
78671;BME280;68277;52.724;6.516;2023-06-22T09:01:57;101850.38;;;26.21;55.34
78671;BME280;68277;52.724;6.516;2023-06-22T09:04:22;101841.38;;;26.20;55.07
78671;BME280;68277;52.724;6.516;2023-06-22T09:06:48;101849.84;;;26.16;55.33
78671;BME280;68277;52.724;6.516;2023-06-22T09:09:16;101809.22;;;26.27;54.49
78671;BME280;68277;52.724;6.516;2023-06-22T09:11:42;101832.63;;;26.53;53.02
78671;BME280;68277;52.724;6.516;2023-06-22T09:14:08;101800.09;;;26.28;53.58
78671;BME280;68277;52.724;6.516;2023-06-22T09:16:36;101812.84;;;26.51;53.33
78671;BME280;68277;52.724;6.516;2023-06-22T09:19:02;101830.78;;;26.54;52.87
78671;BME280;68277;52.724;6.516;2023-06-22T09:21:28;101823.19;;;26.46;52.97
78671;BME280;68277;52.724;6.516;2023-06-22T09:23:54;101828.28;;;26.51;51.71
78671;BME280;68277;52.724;6.516;2023-06-22T09:26:20;101824.47;;;26.53;52.80
78671;BME280;68277;52.724;6.516;2023-06-22T09:28:45;101826.78;;;26.46;52.55
78671;BME280;68277;52.724;6.516;2023-06-22T09:31:12;101806.47;;;26.39;52.90
78671;BME280;68277;52.724;6.516;2023-06-22T09:33:40;101802.63;;;26.55;52.80
78671;BME280;68277;52.724;6.516;2023-06-22T09:36:06;101790.47;;;26.47;52.88
78671;BME280;68277;52.724;6.516;2023-06-22T09:38:38;101813.06;;;26.48;52.37
78671;BME280;68277;52.724;6.516;2023-06-22T09:41:04;101804.41;;;26.43;53.24
78671;BME280;68277;52.724;6.516;2023-06-22T09:43:31;101804.25;;;26.57;53.60
78671;BME280;68277;52.724;6.516;2023-06-22T09:45:57;101799.34;;;26.75;53.17
78671;BME280;68277;52.724;6.516;2023-06-22T09:48:23;101812.34;;;26.82;53.36
78671;BME280;68277;52.724;6.516;2023-06-22T09:50:48;101788.88;;;27.05;52.71
78671;BME280;68277;52.724;6.516;2023-06-22T09:53:14;101786.34;;;27.26;52.39
78671;BME280;68277;52.724;6.516;2023-06-22T09:55:41;101795.72;;;27.45;51.96
78671;BME280;68277;52.724;6.516;2023-06-22T09:58:07;101807.13;;;27.27;52.53
78671;BME280;68277;52.724;6.516;2023-06-22T10:00:34;101804.47;;;26.90;52.58
78671;BME280;68277;52.724;6.516;2023-06-22T10:02:59;101785.06;;;26.71;52.34
78671;BME280;68277;52.724;6.516;2023-06-22T10:05:24;101791.59;;;26.81;51.92
78671;BME280;68277;52.724;6.516;2023-06-22T10:07:50;101793.69;;;27.01;51.38
78671;BME280;68277;52.724;6.516;2023-06-22T10:10:16;101813.03;;;27.21;50.82
78671;BME280;68277;52.724;6.516;2023-06-22T10:12:43;101777.66;;;27.09;51.01
78671;BME280;68277;52.724;6.516;2023-06-22T10:15:10;101788.69;;;27.19;51.11
78671;BME280;68277;52.724;6.516;2023-06-22T10:17:35;101787.97;;;27.28;51.13
78671;BME280;68277;52.724;6.516;2023-06-22T10:20:01;101774.44;;;27.39;50.71
78671;BME280;68277;52.724;6.516;2023-06-22T10:22:37;101802.81;;;27.59;50.34
78671;BME280;68277;52.724;6.516;2023-06-22T10:25:03;101791.06;;;27.58;50.54
78671;BME280;68277;52.724;6.516;2023-06-22T10:27:28;101763.09;;;27.45;49.81
78671;BME280;68277;52.724;6.516;2023-06-22T10:29:54;101796.84;;;27.54;49.15
78671;BME280;68277;52.724;6.516;2023-06-22T10:32:20;101775.63;;;27.24;50.03
78671;BME280;68277;52.724;6.516;2023-06-22T10:34:45;101773.44;;;27.05;49.66
78671;BME280;68277;52.724;6.516;2023-06-22T10:37:11;101761.75;;;26.92;49.50
78671;BME280;68277;52.724;6.516;2023-06-22T10:39:36;101761.19;;;27.00;49.41
78671;BME280;68277;52.724;6.516;2023-06-22T10:42:02;101752.94;;;27.01;49.22
78671;BME280;68277;52.724;6.516;2023-06-22T10:44:27;101745.25;;;27.06;49.34
78671;BME280;68277;52.724;6.516;2023-06-22T10:46:53;101752.28;;;26.98;48.49
78671;BME280;68277;52.724;6.516;2023-06-22T10:49:18;101781.03;;;26.89;48.67
78671;BME280;68277;52.724;6.516;2023-06-22T10:51:44;101769.47;;;26.75;49.44
78671;BME280;68277;52.724;6.516;2023-06-22T10:54:09;101760.97;;;26.67;48.93
78671;BME280;68277;52.724;6.516;2023-06-22T10:56:35;101745.66;;;26.42;49.51
78671;BME280;68277;52.724;6.516;2023-06-22T10:59:01;101738.41;;;26.42;49.70
78671;BME280;68277;52.724;6.516;2023-06-22T11:01:27;101737.63;;;26.64;49.04
78671;BME280;68277;52.724;6.516;2023-06-22T11:03:53;101756.78;;;26.63;49.05
78671;BME280;68277;52.724;6.516;2023-06-22T11:06:18;101764.22;;;26.48;48.53
78671;BME280;68277;52.724;6.516;2023-06-22T11:08:44;101785.50;;;26.54;48.95
78671;BME280;68277;52.724;6.516;2023-06-22T11:11:10;101765.34;;;26.33;48.92
78671;BME280;68277;52.724;6.516;2023-06-22T11:13:36;101755.59;;;26.30;49.11
78671;BME280;68277;52.724;6.516;2023-06-22T11:16:01;101787.34;;;26.41;48.81
78671;BME280;68277;52.724;6.516;2023-06-22T11:18:27;101760.63;;;26.11;48.87
78671;BME280;68277;52.724;6.516;2023-06-22T11:20:52;101764.81;;;26.03;49.44
78671;BME280;68277;52.724;6.516;2023-06-22T11:23:18;101783.84;;;26.15;49.25
78671;BME280;68277;52.724;6.516;2023-06-22T11:25:44;101767.22;;;25.95;49.11
78671;BME280;68277;52.724;6.516;2023-06-22T11:28:11;101767.97;;;25.97;49.07
78671;BME280;68277;52.724;6.516;2023-06-22T11:30:37;101757.78;;;25.88;49.00
78671;BME280;68277;52.724;6.516;2023-06-22T11:33:02;101756.06;;;25.87;49.41
78671;BME280;68277;52.724;6.516;2023-06-22T11:35:28;101775.50;;;25.93;49.46
78671;BME280;68277;52.724;6.516;2023-06-22T11:37:53;101751.28;;;25.90;49.10
78671;BME280;68277;52.724;6.516;2023-06-22T11:40:19;101746.41;;;25.95;49.26
78671;BME280;68277;52.724;6.516;2023-06-22T11:42:44;101765.16;;;25.98;49.29
78671;BME280;68277;52.724;6.516;2023-06-22T11:45:10;101773.28;;;25.98;49.44
78671;BME280;68277;52.724;6.516;2023-06-22T11:47:35;101742.69;;;25.96;49.32
78671;BME280;68277;52.724;6.516;2023-06-22T11:50:02;101750.41;;;26.02;49.50
78671;BME280;68277;52.724;6.516;2023-06-22T11:52:28;101730.66;;;26.00;49.05
78671;BME280;68277;52.724;6.516;2023-06-22T11:54:53;101739.66;;;26.01;49.40
78671;BME280;68277;52.724;6.516;2023-06-22T11:57:19;101729.13;;;25.96;49.61
78671;BME280;68277;52.724;6.516;2023-06-22T11:59:44;101750.41;;;26.15;48.94
78671;BME280;68277;52.724;6.516;2023-06-22T12:02:10;101741.41;;;26.14;48.90
78671;BME280;68277;52.724;6.516;2023-06-22T12:04:35;101738.66;;;26.27;49.13
78671;BME280;68277;52.724;6.516;2023-06-22T12:07:01;101723.78;;;26.20;49.00
78671;BME280;68277;52.724;6.516;2023-06-22T12:09:27;101724.03;;;26.40;48.82
78671;BME280;68277;52.724;6.516;2023-06-22T12:11:53;101738.06;;;26.47;48.29
78671;BME280;68277;52.724;6.516;2023-06-22T12:14:18;101721.47;;;26.39;48.67
78671;BME280;68277;52.724;6.516;2023-06-22T12:16:44;101710.63;;;26.26;48.73
78671;BME280;68277;52.724;6.516;2023-06-22T12:19:10;101690.69;;;26.15;48.37
78671;BME280;68277;52.724;6.516;2023-06-22T12:21:37;101725.03;;;26.39;47.63
78671;BME280;68277;52.724;6.516;2023-06-22T12:24:03;101697.72;;;26.30;48.70
78671;BME280;68277;52.724;6.516;2023-06-22T12:26:28;101703.34;;;26.39;48.37
78671;BME280;68277;52.724;6.516;2023-06-22T12:28:55;101715.16;;;26.38;47.81
78671;BME280;68277;52.724;6.516;2023-06-22T12:31:20;101682.00;;;26.22;48.13
78671;BME280;68277;52.724;6.516;2023-06-22T12:33:46;101688.66;;;26.18;47.92
78671;BME280;68277;52.724;6.516;2023-06-22T12:36:11;101668.38;;;25.99;47.88
78671;BME280;68277;52.724;6.516;2023-06-22T12:38:37;101701.81;;;26.12;48.17
78671;BME280;68277;52.724;6.516;2023-06-22T12:41:02;101675.75;;;25.97;48.58
78671;BME280;68277;52.724;6.516;2023-06-22T12:43:28;101693.75;;;26.10;48.89
78671;BME280;68277;52.724;6.516;2023-06-22T12:45:53;101679.34;;;25.97;49.21
78671;BME280;68277;52.724;6.516;2023-06-22T12:48:22;101682.53;;;25.78;49.93
78671;BME280;68277;52.724;6.516;2023-06-22T12:50:47;101656.97;;;25.57;50.23
78671;BME280;68277;52.724;6.516;2023-06-22T12:53:13;101650.00;;;25.53;50.18